createdAt,value
2019-04-05T00:01:27.590Z,14.49
2019-04-05T00:03:59.365Z,14.53
2019-04-05T00:06:31.098Z,14.53
2019-04-05T00:09:04.603Z,14.52
2019-04-05T00:11:36.497Z,14.54
2019-04-05T00:14:08.428Z,14.55
2019-04-05T00:16:40.236Z,14.56
2019-04-05T00:19:11.965Z,14.58
2019-04-05T00:21:43.673Z,14.58
2019-04-05T00:24:15.439Z,14.56
2019-04-05T00:26:47.229Z,14.56
2019-04-05T00:29:18.999Z,14.52
2019-04-05T00:31:50.781Z,14.47
2019-04-05T00:34:22.451Z,14.48
2019-04-05T00:36:54.164Z,14.42
2019-04-05T00:39:25.966Z,14.39
2019-04-05T00:41:57.678Z,14.40
2019-04-05T00:44:29.509Z,14.36
2019-04-05T00:47:01.292Z,14.36
2019-04-05T00:49:33.012Z,14.35
2019-04-05T00:52:05.132Z,14.39
2019-04-05T00:54:36.907Z,14.38
2019-04-05T00:57:08.554Z,14.39
2019-04-05T00:59:40.277Z,14.37
2019-04-05T01:02:12.058Z,14.33
2019-04-05T01:04:43.777Z,14.42
2019-04-05T01:07:15.487Z,14.42
2019-04-05T01:09:47.162Z,14.42
2019-04-05T01:12:18.995Z,14.47
2019-04-05T01:14:50.727Z,14.37
2019-04-05T01:17:25.021Z,14.37
2019-04-05T01:19:56.434Z,14.30
2019-04-05T01:22:28.851Z,14.30
2019-04-05T01:25:03.641Z,14.31
2019-04-05T01:27:35.686Z,14.25
2019-04-05T01:30:08.050Z,14.23
2019-04-05T01:32:39.823Z,14.25
2019-04-05T01:35:11.632Z,14.14
2019-04-05T01:37:43.457Z,14.22
2019-04-05T01:40:15.082Z,14.15
2019-04-05T01:42:46.707Z,14.15
2019-04-05T01:45:18.409Z,14.11
2019-04-05T01:47:50.085Z,14.09
2019-04-05T01:50:21.802Z,14.13
2019-04-05T01:52:53.406Z,14.16
2019-04-05T01:55:25.121Z,14.17
2019-04-05T01:57:56.902Z,14.10
2019-04-05T02:00:28.703Z,14.15
2019-04-05T02:03:00.386Z,14.16
2019-04-05T02:05:32.099Z,14.14
2019-04-05T02:08:03.874Z,14.08
2019-04-05T02:10:35.781Z,14.14
2019-04-05T02:13:07.448Z,14.10
2019-04-05T02:15:39.208Z,14.10
2019-04-05T02:18:11.145Z,14.10
2019-04-05T02:20:44.054Z,14.16
2019-04-05T02:23:15.805Z,14.15
2019-04-05T02:25:47.527Z,14.08
2019-04-05T02:28:19.227Z,14.11
2019-04-05T02:30:51.006Z,14.14
2019-04-05T02:33:22.690Z,14.12
2019-04-05T02:35:54.316Z,14.11
2019-04-05T02:38:25.992Z,14.11
2019-04-05T02:40:58.836Z,14.10
2019-04-05T02:43:30.882Z,14.11
2019-04-05T02:46:02.887Z,14.06
2019-04-05T02:48:35.482Z,13.99
2019-04-05T02:51:07.448Z,14.00
2019-04-05T02:53:39.211Z,13.94
2019-04-05T02:56:11.142Z,13.88
2019-04-05T02:58:42.876Z,13.83
2019-04-05T03:01:14.682Z,13.74
2019-04-05T03:03:46.429Z,13.74
2019-04-05T03:06:18.104Z,13.63
2019-04-05T03:08:49.886Z,13.55
2019-04-05T03:11:21.496Z,13.49
2019-04-05T03:13:54.656Z,13.43
2019-04-05T03:16:40.030Z,13.39
2019-04-05T03:19:05.814Z,13.36
2019-04-05T03:21:39.203Z,13.24
2019-04-05T03:24:13.373Z,13.19
2019-04-05T03:26:50.548Z,13.20
2019-04-05T03:29:22.325Z,13.04
2019-04-05T03:31:54.216Z,13.02
2019-04-05T03:34:25.992Z,12.99
2019-04-05T03:36:57.714Z,12.97
2019-04-05T03:39:29.453Z,12.93
2019-04-05T03:42:01.180Z,12.96
2019-04-05T03:44:33.019Z,12.93
2019-04-05T03:47:04.946Z,12.91
2019-04-05T03:49:36.679Z,12.85
2019-04-05T03:52:08.419Z,12.77
2019-04-05T03:54:40.024Z,12.70
2019-04-05T03:57:11.778Z,12.73
2019-04-05T03:59:43.506Z,12.69
2019-04-05T04:02:15.357Z,12.70
2019-04-05T04:04:47.100Z,12.61
2019-04-05T04:07:18.959Z,12.53
2019-04-05T04:09:50.576Z,12.40
2019-04-05T04:12:22.271Z,12.44
2019-04-05T04:14:53.989Z,12.41
2019-04-05T04:17:25.631Z,12.33
2019-04-05T04:19:57.516Z,12.33
2019-04-05T04:22:29.725Z,12.31
2019-04-05T04:25:01.487Z,12.22
2019-04-05T04:27:33.280Z,12.23
2019-04-05T04:30:05.179Z,12.13
2019-04-05T04:32:36.959Z,12.12
2019-04-05T04:35:08.686Z,12.13
2019-04-05T04:37:40.474Z,12.03
2019-04-05T04:40:12.177Z,11.98
2019-04-05T04:42:43.960Z,12.02
2019-04-05T04:45:15.670Z,12.05
2019-04-05T04:47:47.462Z,12.02
2019-04-05T04:50:19.447Z,11.96
2019-04-05T04:52:51.248Z,11.98
2019-04-05T04:55:22.945Z,11.86
2019-04-05T04:57:54.753Z,11.88
2019-04-05T05:00:26.710Z,11.91
2019-04-05T05:02:58.516Z,11.89
2019-04-05T05:05:30.555Z,11.93
2019-04-05T05:08:03.196Z,11.88
2019-04-05T05:10:35.222Z,11.81
2019-04-05T05:13:06.842Z,11.81
2019-04-05T05:15:38.624Z,11.84
2019-04-05T05:18:10.432Z,11.93
2019-04-05T05:20:42.779Z,11.95
2019-04-05T05:23:14.646Z,12.05
2019-04-05T05:25:47.347Z,12.03
2019-04-05T05:28:19.126Z,12.06
2019-04-05T05:30:51.138Z,12.15
2019-04-05T05:33:22.857Z,12.22
2019-04-05T05:35:54.553Z,12.23
2019-04-05T05:38:26.219Z,12.29
2019-04-05T05:40:57.930Z,12.31
2019-04-05T05:43:29.611Z,12.28
2019-04-05T05:46:01.325Z,12.31
2019-04-05T05:48:33.113Z,12.33
2019-04-05T05:51:04.835Z,12.44
2019-04-05T05:53:36.557Z,12.46
2019-04-05T05:56:08.392Z,12.53
2019-04-05T05:58:40.100Z,12.64
2019-04-05T06:01:11.751Z,12.73
2019-04-05T06:03:43.472Z,12.88
2019-04-05T06:06:15.353Z,12.95
2019-04-05T06:08:47.040Z,13.05
2019-04-05T06:11:18.755Z,13.19
2019-04-05T06:13:50.548Z,13.29
2019-04-05T06:16:22.262Z,13.41
2019-04-05T06:18:53.887Z,13.52
2019-04-05T06:21:25.609Z,13.57
2019-04-05T06:23:57.321Z,13.65
2019-04-05T06:26:29.034Z,13.73
2019-04-05T06:29:00.759Z,13.85
2019-04-05T06:31:32.548Z,13.94
2019-04-05T06:34:04.236Z,14.04
2019-04-05T06:36:35.852Z,14.13
2019-04-05T06:39:08.731Z,14.19
2019-04-05T06:41:40.529Z,14.30
2019-04-05T06:44:12.260Z,14.39
2019-04-05T06:46:44.078Z,14.46
2019-04-05T06:49:15.751Z,14.48
2019-04-05T06:51:47.472Z,14.58
2019-04-05T06:54:19.188Z,14.64
2019-04-05T06:56:50.917Z,14.68
2019-04-05T06:59:22.589Z,14.73
2019-04-05T07:01:54.198Z,14.81
2019-04-05T07:04:25.966Z,14.95
2019-04-05T07:06:57.742Z,14.95
2019-04-05T07:09:29.419Z,15.04
2019-04-05T07:12:01.142Z,15.13
2019-04-05T07:14:32.942Z,15.20
2019-04-05T07:17:05.633Z,15.31
2019-04-05T07:19:38.430Z,15.45
2019-04-05T07:22:10.192Z,15.64
2019-04-05T07:24:41.987Z,15.80
2019-04-05T07:27:13.928Z,15.95
2019-04-05T07:29:45.731Z,16.01
2019-04-05T07:32:17.452Z,16.21
2019-04-05T07:34:49.879Z,16.33
2019-04-05T07:37:21.858Z,16.44
2019-04-05T07:39:53.560Z,16.48
2019-04-05T07:42:25.339Z,16.47
2019-04-05T07:45:01.646Z,16.54
2019-04-05T07:47:35.340Z,16.69
2019-04-05T07:50:07.875Z,16.71
2019-04-05T07:52:41.448Z,16.80
2019-04-05T07:55:13.962Z,16.87
2019-04-05T07:57:45.851Z,16.97
2019-04-05T08:00:43.302Z,17.17
2019-04-05T08:03:15.103Z,17.31
2019-04-05T08:05:46.878Z,17.47
2019-04-05T08:08:24.905Z,17.54
2019-04-05T08:10:59.034Z,17.57
2019-04-05T08:13:31.329Z,17.64
2019-04-05T08:16:03.329Z,17.78
2019-04-05T08:18:35.406Z,17.81
2019-04-05T08:21:07.332Z,17.88
2019-04-05T08:23:39.471Z,17.92
2019-04-05T08:26:13.061Z,17.95
2019-04-05T08:28:48.973Z,18.00
2019-04-05T08:31:21.171Z,18.16
2019-04-05T08:33:52.971Z,18.33
2019-04-05T08:36:24.730Z,18.46
2019-04-05T08:38:56.489Z,18.55
2019-04-05T08:41:28.227Z,18.64
2019-04-05T08:44:00.010Z,18.73
2019-04-05T08:46:31.728Z,18.75
2019-04-05T08:49:10.684Z,18.87
2019-04-05T08:51:37.087Z,18.88
2019-04-05T08:54:09.008Z,19.05
2019-04-05T08:56:40.719Z,19.20
2019-04-05T08:59:12.336Z,19.22
2019-04-05T09:01:44.173Z,19.33
2019-04-05T09:04:15.945Z,19.34
2019-04-05T09:06:47.738Z,19.32
2019-04-05T09:09:19.440Z,19.37
2019-04-05T09:11:51.142Z,19.64
2019-04-05T09:14:22.874Z,19.74
2019-04-05T09:16:54.642Z,19.85
2019-04-05T09:19:27.415Z,20.10
2019-04-05T09:21:59.126Z,20.43
2019-04-05T09:24:30.852Z,20.80
2019-04-05T09:27:02.912Z,20.89
2019-04-05T09:29:34.701Z,20.91
2019-04-05T09:32:06.413Z,20.88
2019-04-05T09:34:38.343Z,21.04
2019-04-05T09:37:10.115Z,21.00
2019-04-05T09:39:42.033Z,20.86
2019-04-05T09:42:13.805Z,20.70
2019-04-05T09:44:45.530Z,20.67
2019-04-05T09:47:17.243Z,20.56
2019-04-05T09:49:48.954Z,20.47
2019-04-05T09:52:20.629Z,20.42
2019-04-05T09:54:52.342Z,20.57
2019-04-05T09:57:24.123Z,20.68
2019-04-05T09:59:55.862Z,20.83
2019-04-05T10:02:27.592Z,20.77
2019-04-05T10:04:59.280Z,21.09
2019-04-05T10:07:30.982Z,21.06
2019-04-05T10:10:02.692Z,20.91
2019-04-05T10:12:34.589Z,20.73
2019-04-05T10:15:06.587Z,20.91
2019-04-05T10:17:38.378Z,21.15
2019-04-05T10:20:10.158Z,21.39
2019-04-05T10:22:42.850Z,21.28
2019-04-05T10:25:14.635Z,21.30
2019-04-05T10:27:46.400Z,21.55
2019-04-05T10:30:18.207Z,21.90
2019-04-05T10:32:50.100Z,22.28
2019-04-05T10:35:21.873Z,22.46
2019-04-05T10:37:53.677Z,22.65
2019-04-05T10:40:25.514Z,22.80
2019-04-05T10:42:57.334Z,23.14
2019-04-05T10:45:29.027Z,23.54
2019-04-05T10:48:00.818Z,23.70
2019-04-05T10:50:32.620Z,23.69
2019-04-05T10:53:04.316Z,23.86
2019-04-05T10:55:38.967Z,23.97
2019-04-05T10:58:10.838Z,24.04
2019-04-05T11:00:42.702Z,24.15
2019-04-05T11:03:14.478Z,24.49
2019-04-05T11:05:49.103Z,24.76
2019-04-05T11:08:19.552Z,24.89
2019-04-05T11:10:51.153Z,24.75
2019-04-05T11:13:23.931Z,24.94
2019-04-05T11:15:55.731Z,25.28
2019-04-05T11:18:27.419Z,25.34
2019-04-05T11:20:59.095Z,25.41
2019-04-05T11:23:30.718Z,24.76
2019-04-05T11:26:02.440Z,24.53
2019-04-05T11:28:34.369Z,24.54
2019-04-05T11:31:06.202Z,24.83
2019-04-05T11:33:37.977Z,25.22
2019-04-05T11:36:11.579Z,25.60
2019-04-05T11:38:43.485Z,25.80
2019-04-05T11:41:15.192Z,25.94
2019-04-05T11:43:46.985Z,25.99
2019-04-05T11:46:18.691Z,26.41
2019-04-05T11:48:51.364Z,26.77
2019-04-05T11:51:23.070Z,26.54
2019-04-05T11:53:54.785Z,26.12
2019-04-05T11:56:26.491Z,26.29
2019-04-05T11:58:58.269Z,26.43
2019-04-05T12:01:38.212Z,26.53
2019-04-05T12:04:10.589Z,26.41
2019-04-05T12:06:42.304Z,26.37
2019-04-05T12:09:14.099Z,25.92
2019-04-05T12:11:46.515Z,25.32
2019-04-05T12:14:29.649Z,24.86
2019-04-05T12:16:52.816Z,24.91
2019-04-05T12:19:24.611Z,25.13
2019-04-05T12:21:56.376Z,25.23
2019-04-05T12:24:28.161Z,25.20
2019-04-05T12:26:59.936Z,24.91
2019-04-05T12:29:31.717Z,24.77
2019-04-05T12:32:03.327Z,24.73
2019-04-05T12:34:35.136Z,24.46
2019-04-05T12:37:07.277Z,24.34
2019-04-05T12:39:39.264Z,24.31
2019-04-05T12:42:12.148Z,24.27
2019-04-05T12:44:45.590Z,24.24
2019-04-05T12:47:17.355Z,23.90
2019-04-05T12:49:49.076Z,23.95
2019-04-05T12:52:22.875Z,23.99
2019-04-05T12:54:54.946Z,23.97
2019-04-05T12:57:27.878Z,24.13
2019-04-05T13:00:00.144Z,24.31
2019-04-05T13:02:33.951Z,24.44
2019-04-05T13:05:06.444Z,24.61
2019-04-05T13:07:38.351Z,24.69
2019-04-05T13:10:10.335Z,24.74
2019-04-05T13:12:42.230Z,24.75
2019-04-05T13:15:17.113Z,24.49
2019-04-05T13:17:47.921Z,24.48
2019-04-05T13:20:20.149Z,24.36
2019-04-05T13:22:52.300Z,24.23
2019-04-05T13:25:24.208Z,24.23
2019-04-05T13:27:56.142Z,24.19
2019-04-05T13:30:28.109Z,24.29
2019-04-05T13:33:01.056Z,24.48
2019-04-05T13:35:33.645Z,24.67
2019-04-05T13:38:05.712Z,24.84
2019-04-05T13:40:38.040Z,24.77
2019-04-05T13:43:10.109Z,24.86
2019-04-05T13:45:43.055Z,24.92
2019-04-05T13:48:15.624Z,24.78
2019-04-05T13:50:51.348Z,24.83
2019-04-05T13:53:23.476Z,24.83
2019-04-05T13:55:55.352Z,24.72
2019-04-05T13:58:27.226Z,24.48
2019-04-05T14:00:58.943Z,24.38
2019-04-05T14:03:30.853Z,24.64
2019-04-05T14:06:02.724Z,24.75
2019-04-05T14:08:36.699Z,24.83
2019-04-05T14:11:08.361Z,24.86
2019-04-05T14:13:42.956Z,24.85
2019-04-05T14:16:17.877Z,24.77
2019-04-05T14:18:50.441Z,24.65
2019-04-05T14:21:22.536Z,24.71
2019-04-05T14:23:55.116Z,24.58
2019-04-05T14:26:27.389Z,24.60
2019-04-05T14:29:03.490Z,24.58
2019-04-05T14:31:34.320Z,24.51
2019-04-05T14:34:06.478Z,24.44
2019-04-05T14:36:38.495Z,24.45
2019-04-05T14:39:10.828Z,24.38
2019-04-05T14:41:42.803Z,24.40
2019-04-05T14:44:15.155Z,24.45
2019-04-05T14:46:48.360Z,24.29
2019-04-05T14:49:20.738Z,24.10
2019-04-05T14:51:56.340Z,24.15
2019-04-05T14:54:26.573Z,24.01
2019-04-05T14:57:02.435Z,23.97
2019-04-05T14:59:32.962Z,23.98
2019-04-05T15:02:05.140Z,23.97
2019-04-05T15:04:37.179Z,23.82
2019-04-05T15:07:08.956Z,23.77
2019-04-05T15:09:40.669Z,23.87
2019-04-05T15:12:12.553Z,23.92
2019-04-05T15:14:44.153Z,23.90
2019-04-05T15:17:15.879Z,23.84
2019-04-05T15:19:47.688Z,23.73
2019-04-05T15:22:19.683Z,23.68
2019-04-05T15:24:51.466Z,23.87
2019-04-05T15:27:23.837Z,24.10
2019-04-05T15:29:56.282Z,24.34
2019-04-05T15:32:28.232Z,24.51
2019-04-05T15:35:00.031Z,24.67
2019-04-05T15:37:32.616Z,25.14
2019-04-05T15:40:05.503Z,25.35
2019-04-05T15:42:37.856Z,26.11
2019-04-05T15:45:09.834Z,26.51
2019-04-05T15:47:42.174Z,26.13
2019-04-05T15:50:14.499Z,25.65
2019-04-05T15:52:46.870Z,25.23
2019-04-05T15:55:20.098Z,24.57
2019-04-05T15:57:52.938Z,23.91
2019-04-05T16:00:40.725Z,23.12
2019-04-05T16:03:12.798Z,22.59
2019-04-05T16:05:44.874Z,22.43
2019-04-05T16:08:18.163Z,22.23
2019-04-05T16:10:51.264Z,21.54
2019-04-05T16:13:24.620Z,21.39
2019-04-05T16:15:56.580Z,21.32
2019-04-05T16:18:28.364Z,21.25
2019-04-05T16:21:00.103Z,21.51
2019-04-05T16:23:31.929Z,21.73
2019-04-05T16:26:04.155Z,21.64
2019-04-05T16:28:36.827Z,21.64
2019-04-05T16:31:08.910Z,21.40
2019-04-05T16:33:40.834Z,21.08
2019-04-05T16:36:12.767Z,20.87
2019-04-05T16:38:44.456Z,20.88
2019-04-05T16:41:16.246Z,20.60
2019-04-05T16:43:47.916Z,20.46
2019-04-05T16:46:19.706Z,20.28
2019-04-05T16:48:52.152Z,20.14
2019-04-05T16:51:25.260Z,20.08
2019-04-05T16:54:00.639Z,19.84
2019-04-05T16:56:33.374Z,19.80
2019-04-05T16:59:05.144Z,19.72
2019-04-05T17:01:36.949Z,19.70
2019-04-05T17:04:09.456Z,19.62
2019-04-05T17:06:41.965Z,19.56
2019-04-05T17:09:13.659Z,19.50
2019-04-05T17:11:45.960Z,19.49
2019-04-05T17:14:17.762Z,19.47
2019-04-05T17:16:50.627Z,19.40
2019-04-05T17:19:23.416Z,19.41
2019-04-05T17:21:56.033Z,19.33
2019-04-05T17:24:28.419Z,19.21
2019-04-05T17:27:00.372Z,19.14
2019-04-05T17:29:32.352Z,19.06
2019-04-05T17:32:04.063Z,19.02
2019-04-05T17:34:35.892Z,18.97
2019-04-05T17:37:08.121Z,18.88
2019-04-05T17:39:40.232Z,18.82
2019-04-05T17:42:12.021Z,18.70
2019-04-05T17:44:43.794Z,18.65
2019-04-05T17:47:15.540Z,18.60
2019-04-05T17:49:47.340Z,18.51
2019-04-05T17:52:19.117Z,18.57
2019-04-05T17:54:51.827Z,18.48
2019-04-05T17:57:23.614Z,18.47
2019-04-05T17:59:55.429Z,18.42
2019-04-05T18:02:28.480Z,18.37
2019-04-05T18:05:00.294Z,18.31
2019-04-05T18:07:32.099Z,18.28
2019-04-05T18:10:03.904Z,18.23
2019-04-05T18:12:36.105Z,18.27
2019-04-05T18:15:08.309Z,18.17
2019-04-05T18:17:40.262Z,18.15
2019-04-05T18:20:12.053Z,18.04
2019-04-05T18:22:45.308Z,18.03
2019-04-05T18:25:20.143Z,18.03
2019-04-05T18:27:54.575Z,18.03
2019-04-05T18:30:26.917Z,17.98
2019-04-05T18:32:58.747Z,17.97
2019-04-05T18:35:33.478Z,17.98
2019-04-05T18:38:05.462Z,17.98
2019-04-05T18:40:40.333Z,17.92
2019-04-05T18:43:11.632Z,17.86
2019-04-05T18:45:43.356Z,17.78
2019-04-05T18:48:15.139Z,17.78
2019-04-05T18:50:48.553Z,17.77
2019-04-05T18:53:20.566Z,17.78
2019-04-05T18:55:52.985Z,17.77
2019-04-05T18:58:24.973Z,17.76
2019-04-05T19:00:58.429Z,17.73
2019-04-05T19:03:32.677Z,17.64
2019-04-05T19:06:04.934Z,17.62
2019-04-05T19:08:39.890Z,17.65
2019-04-05T19:11:10.591Z,17.61
2019-04-05T19:13:42.413Z,17.57
2019-04-05T19:16:14.205Z,17.59
2019-04-05T19:18:46.017Z,17.50
2019-04-05T19:21:17.817Z,17.47
2019-04-05T19:23:51.134Z,17.49
2019-04-05T19:26:23.179Z,17.48
2019-04-05T19:28:55.034Z,17.46
2019-04-05T19:49:23.534Z,17.41
2019-04-05T19:51:55.218Z,17.37
2019-04-05T19:54:27.022Z,17.33
2019-04-05T19:56:58.738Z,17.34
2019-04-05T19:59:30.521Z,17.30
2019-04-05T20:02:02.322Z,17.27
2019-04-05T20:04:34.120Z,17.25
2019-04-05T20:07:06.018Z,17.19
2019-04-05T20:09:37.808Z,17.08
2019-04-05T20:12:09.572Z,17.06
2019-04-05T20:14:42.284Z,17.07
2019-04-05T20:17:13.893Z,17.06
2019-04-05T20:19:45.779Z,17.07
2019-04-05T20:22:17.487Z,17.09
2019-04-05T20:24:49.198Z,17.09
2019-04-05T20:27:20.902Z,17.03
2019-04-05T20:29:52.640Z,17.03
2019-04-05T20:32:24.367Z,16.96
2019-04-05T20:34:56.041Z,16.95
2019-04-05T20:37:27.839Z,16.99
2019-04-05T20:39:59.622Z,16.90
2019-04-05T20:42:32.506Z,16.88
2019-04-05T20:45:04.270Z,16.90
2019-04-05T20:47:36.052Z,16.85
2019-04-05T20:50:08.312Z,16.80
2019-04-05T20:52:40.318Z,16.82
2019-04-05T20:55:12.005Z,16.79
2019-04-05T20:57:43.774Z,16.76
2019-04-05T21:00:17.552Z,16.72
2019-04-05T21:02:49.325Z,16.69
2019-04-05T21:05:25.591Z,16.64
2019-04-05T21:07:54.496Z,16.59
2019-04-05T21:10:26.291Z,16.52
2019-04-05T21:12:58.114Z,16.53
2019-04-05T21:15:29.806Z,16.48
2019-04-05T21:18:01.526Z,16.48
2019-04-05T21:20:33.302Z,16.34
2019-04-05T21:23:04.917Z,16.33
2019-04-05T21:25:37.317Z,16.28
2019-04-05T21:28:09.047Z,16.23
2019-04-05T21:30:40.825Z,16.19
2019-04-05T21:33:12.659Z,16.14
2019-04-05T21:35:46.016Z,16.07
2019-04-05T21:38:17.988Z,16.02
2019-04-05T21:40:49.710Z,15.91
2019-04-05T21:43:21.442Z,15.83
2019-04-05T21:45:53.161Z,15.81
2019-04-05T21:48:24.998Z,15.81
2019-04-05T21:50:56.780Z,15.68
2019-04-05T21:53:28.572Z,15.59
2019-04-05T21:56:00.366Z,15.54
2019-04-05T21:58:31.980Z,15.48
2019-04-05T22:01:05.838Z,15.40
2019-04-05T22:03:38.464Z,15.33
2019-04-05T22:06:10.399Z,15.29
2019-04-05T22:08:42.190Z,15.24
2019-04-05T22:11:13.896Z,15.18
2019-04-05T22:13:45.825Z,15.21
2019-04-05T22:16:17.609Z,15.18
2019-04-05T22:18:49.303Z,15.13
2019-04-05T22:21:21.089Z,15.00
2019-04-05T22:23:52.885Z,15.00
2019-04-05T22:26:24.503Z,15.01
2019-04-05T22:28:56.291Z,14.97
2019-04-05T22:31:28.090Z,14.95
2019-04-05T22:33:59.917Z,14.87
2019-04-05T22:36:31.839Z,14.87
2019-04-05T22:39:03.714Z,14.87
2019-04-05T22:41:37.299Z,14.72
2019-04-05T22:44:09.085Z,14.70
2019-04-05T22:46:40.870Z,14.70
2019-04-05T22:49:12.594Z,14.69
2019-04-05T22:51:44.420Z,14.64
2019-04-05T22:54:16.229Z,14.53
2019-04-05T22:56:48.025Z,14.55
2019-04-05T22:59:19.759Z,14.50
2019-04-05T23:01:51.555Z,14.42
2019-04-05T23:04:23.326Z,14.32
2019-04-05T23:06:55.128Z,14.34
2019-04-05T23:09:27.027Z,14.33
2019-04-05T23:11:58.917Z,14.25
2019-04-05T23:14:30.725Z,14.14
2019-04-05T23:17:02.458Z,14.14
2019-04-05T23:19:35.164Z,14.16
2019-04-05T23:22:07.366Z,14.11
2019-04-05T23:24:39.294Z,14.15
2019-04-05T23:27:11.017Z,14.10
2019-04-05T23:29:42.844Z,14.00
2019-04-05T23:32:15.664Z,14.00
2019-04-05T23:34:47.502Z,13.91
2019-04-05T23:37:19.221Z,13.85
2019-04-05T23:39:50.940Z,13.85
2019-04-05T23:42:22.728Z,13.78
2019-04-05T23:44:54.523Z,13.77
2019-04-05T23:47:26.252Z,13.70
2019-04-05T23:49:57.972Z,13.61
2019-04-05T23:52:30.090Z,13.62
2019-04-05T23:55:02.886Z,13.60
2019-04-05T23:57:34.683Z,13.64
